Wetterdaten: Woche 11.07.16 - 17.07.16 (KW28)
Datum Zeit Temp. A. Temp. A. max Feuchte A. Luftdruck Regen Wind Richtung Sonnenschein ET UV Solar Taupunkt Windben
11.07.2016 02:00 17,5 C 17,6 C 83 % 1012,3 hPa 0,0 mm 1,5 km/h (1 Bft) W-SW 0,00 h 0,025 mm 0,0 UV-I 0 W/m 14,7 C 3,1 km/h (1 Bft)
11.07.2016 03:00 17,1 C 17,1 C 84 % 1012,2 hPa 0,0 mm 0,8 km/h (0 Bft) S 0,00 h 0,001 mm 0,0 UV-I 0 W/m 14,3 C 2,1 km/h (1 Bft)
11.07.2016 04:00 17,4 C 17,4 C 79 % 1011,7 hPa 0,0 mm 0,8 km/h (0 Bft) O-NO 0,00 h 0,025 mm 0,0 UV-I 0 W/m 13,7 C 1,9 km/h (1 Bft)
11.07.2016 05:00 16,8 C 16,9 C 80 % 1011,4 hPa 0,0 mm 0,3 km/h (0 Bft) N 0,02 h 0,026 mm 0,0 UV-I 12 W/m 13,3 C 1,3 km/h (1 Bft)
11.07.2016 06:00 17,8 C 17,8 C 78 % 1010,9 hPa 0,0 mm 0,9 km/h (0 Bft) O 0,60 h 0,000 mm 0,5 UV-I 82 W/m 13,9 C 2,3 km/h (1 Bft)
11.07.2016 07:00 19,2 C 19,3 C 77 % 1010,9 hPa 0,0 mm 0,8 km/h (0 Bft) SO 0,47 h 0,050 mm 0,9 UV-I 163 W/m 15,1 C 1,9 km/h (1 Bft)
11.07.2016 08:00 21,8 C 21,8 C 72 % 1011,1 hPa 0,0 mm 0,9 km/h (0 Bft) S-SO 0,90 h 0,102 mm 2,0 UV-I 323 W/m 16,5 C 2,2 km/h (1 Bft)
11.07.2016 09:00 25,2 C 25,2 C 61 % 1011,2 hPa 0,0 mm 5,2 km/h (1 Bft) W-SW 1,00 h 0,203 mm 3,3 UV-I 486 W/m 17,1 C 8,9 km/h (2 Bft)
11.07.2016 10:00 26,2 C 26,3 C 57 % 1011,2 hPa 0,0 mm 9,1 km/h (2 Bft) W 1,00 h 0,330 mm 4,9 UV-I 682 W/m 17,1 C 14,4 km/h (3 Bft)
11.07.2016 11:00 27,1 C 27,1 C 56 % 1011,0 hPa 0,0 mm 6,8 km/h (2 Bft) W-NW 1,00 h 0,508 mm 6,2 UV-I 781 W/m 17,5 C 10,8 km/h (2 Bft)
11.07.2016 12:00 27,5 C 27,5 C 54 % 1010,7 hPa 0,0 mm 4,2 km/h (1 Bft) W-NW 0,92 h 0,559 mm 6,3 UV-I 748 W/m 17,3 C 7,1 km/h (2 Bft)
11.07.2016 13:00 27,6 C 27,6 C 54 % 1010,4 hPa 0,0 mm 2,8 km/h (1 Bft) W-NW 0,50 h 0,508 mm 4,6 UV-I 518 W/m 17,4 C 4,9 km/h (1 Bft)
11.07.2016 14:00 27,3 C 27,3 C 57 % 1010,2 hPa 0,0 mm 3,0 km/h (1 Bft) N-NW 0,12 h 0,356 mm 3,3 UV-I 324 W/m 17,9 C 5,0 km/h (1 Bft)
11.07.2016 15:00 26,1 C 26,2 C 64 % 1009,6 hPa 0,0 mm 3,8 km/h (1 Bft) SO 0,80 h 0,228 mm 4,9 UV-I 666 W/m 18,7 C 7,0 km/h (2 Bft)
11.07.2016 16:00 25,4 C 25,5 C 68 % 1009,5 hPa 0,0 mm 1,5 km/h (1 Bft) O 0,17 h 0,432 mm 2,6 UV-I 288 W/m 19,0 C 3,0 km/h (1 Bft)
11.07.2016 17:00 22,6 C 22,8 C 78 % 1009,8 hPa 17,4 mm 4,7 km/h (1 Bft) W-SW 0,00 h 0,203 mm 1,1 UV-I 53 W/m 18,6 C 8,2 km/h (2 Bft)
11.07.2016 18:00 18,1 C 18,1 C 94 % 1010,8 hPa 0,6 mm 2,5 km/h (1 Bft) SO 0,00 h 0,051 mm 0,0 UV-I 17 W/m 17,1 C 4,1 km/h (1 Bft)
11.07.2016 19:00 18,7 C 18,7 C 95 % 1011,2 hPa 0,6 mm 1,3 km/h (1 Bft) S-SW 0,00 h 0,000 mm 0,0 UV-I 33 W/m 17,8 C 2,5 km/h (1 Bft)
11.07.2016 20:00 18,6 C 18,6 C 95 % 1011,6 hPa 0,0 mm 2,5 km/h (1 Bft) SO 0,00 h 0,026 mm 0,0 UV-I 18 W/m 17,8 C 4,3 km/h (1 Bft)
11.07.2016 21:00 18,1 C 18,1 C 96 % 1012,3 hPa 0,4 mm 0,7 km/h (0 Bft) SO 0,00 h 0,000 mm 0,0 UV-I 0 W/m 17,4 C 1,7 km/h (1 Bft)
11.07.2016 22:00 17,7 C 17,7 C 96 % 1012,0 hPa 0,4 mm 0,8 km/h (0 Bft) O-NO 0,00 h 0,000 mm 0,0 UV-I 0 W/m 17,1 C 1,9 km/h (1 Bft)
11.07.2016 23:00 17,3 C 17,3 C 97 % 1011,3 hPa 0,0 mm 0,6 km/h (0 Bft) N-NO 0,00 h 0,025 mm 0,0 UV-I 0 W/m 16,8 C 1,5 km/h (1 Bft)
12.07.2016 00:00 17,0 C 17,1 C 95 % 1011,3 hPa 0,0 mm 1,3 km/h (1 Bft) W-SW 0,00 h 0,000 mm 0,0 UV-I 0 W/m 16,3 C 2,3 km/h (1 Bft)
12.07.2016 01:00 17,0 C 17,0 C 93 % 1012,3 hPa 0,0 mm 4,3 km/h (1 Bft) W-SW 0,00 h 0,000 mm 0,0 UV-I 0 W/m 15,8 C 7,5 km/h (2 Bft)
12.07.2016 02:00 16,3 C 16,3 C 96 % 1011,5 hPa 0,8 mm 2,3 km/h (1 Bft) S-SO 0,00 h 0,000 mm 0,0 UV-I 0 W/m 15,7 C 3,7 km/h (1 Bft)
12.07.2016 03:00 16,3 C 16,3 C 96 % 1011,0 hPa 0,0 mm 1,2 km/h (1 Bft) NO 0,00 h 0,000 mm 0,0 UV-I 0 W/m 15,7 C 2,2 km/h (1 Bft)
12.07.2016 04:00 16,3 C 16,3 C 96 % 1012,2 hPa 0,0 mm 2,0 km/h (1 Bft) W-SW 0,00 h 0,000 mm 0,0 UV-I 0 W/m 15,7 C 3,7 km/h (1 Bft)
12.07.2016 05:00 16,4 C 16,4 C 96 % 1012,2 hPa 0,2 mm 1,2 km/h (1 Bft) W-SW 0,00 h 0,000 mm 0,0 UV-I 0 W/m 15,8 C 2,4 km/h (1 Bft)
12.07.2016 06:00 16,2 C 16,2 C 97 % 1011,6 hPa 0,4 mm 0,8 km/h (0 Bft) S-SO 0,02 h 0,000 mm 0,5 UV-I 35 W/m 15,7 C 2,1 km/h (1 Bft)
12.07.2016 07:00 16,8 C 16,8 C 95 % 1011,3 hPa 0,0 mm 1,3 km/h (1 Bft) O-SO 0,18 h 0,025 mm 0,6 UV-I 91 W/m 16,0 C 2,6 km/h (1 Bft)
12.07.2016 08:00 16,5 C 16,5 C 96 % 1011,6 hPa 0,6 mm 0,3 km/h (0 Bft) S 0,00 h 0,051 mm 1,0 UV-I 63 W/m 15,9 C 1,0 km/h (0 Bft)
12.07.2016 09:00 17,8 C 17,8 C 92 % 1011,6 hPa 0,0 mm 1,5 km/h (1 Bft) N 0,15 h 0,026 mm 2,1 UV-I 261 W/m 16,6 C 2,8 km/h (1 Bft)
12.07.2016 10:00 18,0 C 18,1 C 91 % 1011,4 hPa 0,0 mm 2,1 km/h (1 Bft) O-NO 0,00 h 0,152 mm 1,3 UV-I 143 W/m 16,5 C 3,4 km/h (1 Bft)
12.07.2016 11:00 18,4 C 18,4 C 91 % 1011,3 hPa 0,0 mm 3,3 km/h (1 Bft) NO 0,10 h 0,076 mm 3,2 UV-I 311 W/m 16,9 C 5,0 km/h (1 Bft)
12.07.2016 12:00 19,3 C 19,3 C 87 % 1011,2 hPa 0,0 mm 3,3 km/h (1 Bft) O-NO 0,13 h 0,203 mm 3,4 UV-I 385 W/m 17,1 C 5,4 km/h (1 Bft)
12.07.2016 13:00 19,5 C 19,6 C 84 % 1010,8 hPa 0,0 mm 3,4 km/h (1 Bft) NO 0,00 h 0,204 mm 2,4 UV-I 238 W/m 16,8 C 5,3 km/h (1 Bft)
12.07.2016 14:00 18,6 C 18,6 C 91 % 1010,4 hPa 3,4 mm 4,6 km/h (1 Bft) NO 0,00 h 0,152 mm 0,9 UV-I 50 W/m 17,1 C 7,3 km/h (2 Bft)
12.07.2016 15:00 15,8 C 15,9 C 93 % 1012,2 hPa 13,4 mm 5,6 km/h (1 Bft) W-NW 0,00 h 0,025 mm 0,0 UV-I 14 W/m 14,8 C 9,2 km/h (2 Bft)
12.07.2016 16:00 15,6 C 15,6 C 95 % 1012,5 hPa 5,4 mm 3,5 km/h (1 Bft) W-SW 0,00 h 0,026 mm 1,2 UV-I 112 W/m 14,8 C 5,8 km/h (1 Bft)
12.07.2016 17:00 16,3 C 16,4 C 94 % 1012,6 hPa 0,2 mm 2,0 km/h (1 Bft) W-SW 0,00 h 0,051 mm 1,0 UV-I 120 W/m 15,4 C 3,8 km/h (1 Bft)
12.07.2016 18:00 16,1 C 16,1 C 95 % 1012,6 hPa 0,2 mm 0,8 km/h (0 Bft) W-SW 0,00 h 0,076 mm 0,6 UV-I 64 W/m 15,3 C 1,9 km/h (1 Bft)
12.07.2016 19:00 15,3 C 15,3 C 96 % 1012,7 hPa 1,2 mm 0,6 km/h (0 Bft) S-SW 0,00 h 0,025 mm 0,0 UV-I 20 W/m 14,6 C 1,5 km/h (1 Bft)
12.07.2016 20:00 14,6 C 14,6 C 96 % 1012,9 hPa 4,2 mm 1,4 km/h (1 Bft) S 0,00 h 0,000 mm 0,0 UV-I 5 W/m 13,9 C 2,7 km/h (1 Bft)
12.07.2016 21:00 13,8 C 13,8 C 96 % 1013,0 hPa 4,6 mm 0,8 km/h (0 Bft) W-SW 0,00 h 0,000 mm 0,0 UV-I 0 W/m 13,2 C 1,6 km/h (1 Bft)
12.07.2016 22:00 13,3 C 13,3 C 97 % 1012,6 hPa 0,2 mm 1,7 km/h (1 Bft) N-NO 0,00 h 0,000 mm 0,0 UV-I 0 W/m 12,8 C 2,9 km/h (1 Bft)
12.07.2016 23:00 13,2 C 13,2 C 97 % 1012,1 hPa 0,0 mm 0,8 km/h (0 Bft) O-NO 0,00 h 0,000 mm 0,0 UV-I 0 W/m 12,7 C 1,8 km/h (1 Bft)
13.07.2016 00:00 13,0 C 13,0 C 96 % 1011,9 hPa 0,0 mm 2,8 km/h (1 Bft) W 0,00 h 0,000 mm 0,0 UV-I 0 W/m 12,3 C 4,5 km/h (1 Bft)
13.07.2016 01:00 13,3 C 13,3 C 94 % 1012,5 hPa 0,0 mm 4,1 km/h (1 Bft) W-SW 0,00 h 0,000 mm 0,0 UV-I 0 W/m 12,4 C 7,3 km/h (2 Bft)
13.07.2016 02:00 12,9 C 13,0 C 95 % 1013,3 hPa 4,2 mm 5,4 km/h (1 Bft) W-SW 0,00 h 0,000 mm 0,0 UV-I 0 W/m 12,1 C 9,2 km/h (2 Bft)
13.07.2016 03:00 12,2 C 12,2 C 96 % 1012,9 hPa 1,2 mm 1,3 km/h (1 Bft) S 0,00 h 0,000 mm 0,0 UV-I 0 W/m 11,5 C 2,9 km/h (1 Bft)
13.07.2016 04:00 11,8 C 11,8 C 97 % 1012,8 hPa 0,8 mm 0,6 km/h (0 Bft) SO 0,00 h 0,000 mm 0,0 UV-I 0 W/m 11,3 C 1,7 km/h (1 Bft)
13.07.2016 05:00 11,7 C 11,8 C 97 % 1012,7 hPa 0,0 mm 1,0 km/h (0 Bft) S-SW 0,00 h 0,000 mm 0,0 UV-I 6 W/m 11,2 C 2,1 km/h (1 Bft)
13.07.2016 06:00 12,0 C 12,0 C 96 % 1013,0 hPa 0,0 mm 1,4 km/h (1 Bft) W-SW 0,00 h 0,000 mm 0,0 UV-I 21 W/m 11,4 C 2,8 km/h (1 Bft)
13.07.2016 07:00 12,3 C 12,3 C 96 % 1013,0 hPa 0,2 mm 1,1 km/h (1 Bft) W-SW 0,00 h 0,000 mm 0,5 UV-I 42 W/m 11,8 C 2,3 km/h (1 Bft)
13.07.2016 08:00 13,4 C 13,4 C 94 % 1013,1 hPa 0,0 mm 2,7 km/h (1 Bft) W-SW 0,00 h 0,025 mm 1,0 UV-I 138 W/m 12,4 C 4,5 km/h (1 Bft)
13.07.2016 09:00 14,2 C 14,3 C 90 % 1013,3 hPa 0,0 mm 4,2 km/h (1 Bft) W-SW 0,07 h 0,077 mm 1,8 UV-I 236 W/m 12,7 C 7,2 km/h (2 Bft)
13.07.2016 10:00 15,1 C 15,1 C 86 % 1013,0 hPa 0,0 mm 6,9 km/h (2 Bft) W 0,40 h 0,127 mm 2,6 UV-I 320 W/m 12,7 C 10,8 km/h (2 Bft)
13.07.2016 11:00 13,5 C 13,5 C 90 % 1013,4 hPa 0,4 mm 4,5 km/h (1 Bft) W-SW 0,00 h 0,177 mm 1,4 UV-I 163 W/m 11,8 C 7,8 km/h (2 Bft)
13.07.2016 12:00 14,5 C 14,5 C 87 % 1012,9 hPa 0,0 mm 4,9 km/h (1 Bft) W 0,05 h 0,102 mm 2,9 UV-I 332 W/m 12,3 C 8,2 km/h (2 Bft)
13.07.2016 13:00 14,6 C 14,7 C 86 % 1012,7 hPa 0,4 mm 2,5 km/h (1 Bft) W-SW 0,00 h 0,178 mm 1,7 UV-I 154 W/m 12,4 C 4,3 km/h (1 Bft)
13.07.2016 14:00 13,0 C 13,1 C 94 % 1012,9 hPa 4,4 mm 2,2 km/h (1 Bft) S-SW 0,00 h 0,076 mm 0,9 UV-I 83 W/m 12,1 C 4,0 km/h (1 Bft)
13.07.2016 15:00 12,2 C 12,2 C 95 % 1012,9 hPa 0,8 mm 1,0 km/h (0 Bft) S-SW 0,00 h 0,051 mm 0,9 UV-I 81 W/m 11,3 C 2,1 km/h (1 Bft)
13.07.2016 16:00 12,3 C 12,3 C 94 % 1013,3 hPa 1,6 mm 2,2 km/h (1 Bft) W 0,00 h 0,051 mm 0,6 UV-I 63 W/m 11,4 C 4,2 km/h (1 Bft)
13.07.2016 17:00 11,7 C 11,7 C 93 % 1013,5 hPa 1,2 mm 7,6 km/h (2 Bft) W-SW 0,00 h 0,025 mm 0,6 UV-I 65 W/m 10,7 C 12,8 km/h (3 Bft)
13.07.2016 18:00 11,0 C 11,0 C 94 % 1013,9 hPa 1,0 mm 10,6 km/h (2 Bft) W 0,00 h 0,025 mm 0,0 UV-I 27 W/m 10,0 C 16,6 km/h (3 Bft)
13.07.2016 19:00 10,1 C 10,1 C 94 % 1014,9 hPa 4,8 mm 6,7 km/h (2 Bft) W-SW 0,00 h 0,026 mm 0,0 UV-I 10 W/m 9,2 C 11,5 km/h (2 Bft)
13.07.2016 20:00 9,2 C 9,2 C 94 % 1016,1 hPa 4,8 mm 5,7 km/h (1 Bft) W-SW 0,00 h 0,000 mm 0,0 UV-I 0 W/m 8,2 C 9,8 km/h (2 Bft)
13.07.2016 21:00 8,7 C 8,8 C 94 % 1016,7 hPa 2,8 mm 4,1 km/h (1 Bft) W-SW 0,00 h 0,000 mm 0,0 UV-I 0 W/m 7,8 C 7,4 km/h (2 Bft)
13.07.2016 22:00 8,2 C 8,2 C 95 % 1016,8 hPa 0,6 mm 2,2 km/h (1 Bft) SW 0,00 h 0,000 mm 0,0 UV-I 0 W/m 7,4 C 4,1 km/h (1 Bft)
13.07.2016 23:00 7,9 C 7,9 C 96 % 1016,3 hPa 0,6 mm 1,1 km/h (1 Bft) W 0,00 h 0,000 mm 0,0 UV-I 0 W/m 7,2 C 2,4 km/h (1 Bft)
14.07.2016 00:00 7,7 C 7,8 C 96 % 1016,0 hPa 0,0 mm 0,9 km/h (0 Bft) W-SW 0,00 h 0,000 mm 0,0 UV-I 0 W/m 7,2 C 1,9 km/h (1 Bft)
14.07.2016 01:00 8,0 C 8,0 C 96 % 1015,8 hPa 0,2 mm 0,8 km/h (0 Bft) SW 0,00 h 0,000 mm 0,0 UV-I 0 W/m 7,3 C 1,8 km/h (1 Bft)
14.07.2016 02:00 8,3 C 8,3 C 94 % 1015,6 hPa 1,0 mm 3,8 km/h (1 Bft) W-SW 0,00 h 0,000 mm 0,0 UV-I 0 W/m 7,3 C 7,1 km/h (2 Bft)
14.07.2016 03:00 8,4 C 8,4 C 94 % 1015,5 hPa 1,8 mm 8,5 km/h (2 Bft) W 0,00 h 0,000 mm 0,0 UV-I 0 W/m 7,5 C 14,1 km/h (3 Bft)
14.07.2016 04:00 8,4 C 8,4 C 95 % 1015,4 hPa 0,6 mm 7,9 km/h (2 Bft) W-SW 0,00 h 0,000 mm 0,0 UV-I 0 W/m 7,6 C 13,3 km/h (3 Bft)
14.07.2016 05:00 8,5 C 8,5 C 95 % 1015,4 hPa 0,0 mm 8,8 km/h (2 Bft) W-SW 0,00 h 0,000 mm 0,0 UV-I 6 W/m 7,7 C 14,4 km/h (3 Bft)
14.07.2016 06:00 8,6 C 8,7 C 94 % 1015,4 hPa 0,0 mm 7,5 km/h (2 Bft) W 0,00 h 0,000 mm 0,0 UV-I 11 W/m 7,8 C 12,6 km/h (3 Bft)
14.07.2016 07:00 8,8 C 8,8 C 95 % 1015,8 hPa 0,8 mm 6,5 km/h (2 Bft) W-SW 0,00 h 0,000 mm 0,5 UV-I 33 W/m 8,0 C 10,5 km/h (2 Bft)
14.07.2016 08:00 9,1 C 9,1 C 94 % 1016,0 hPa 0,0 mm 6,9 km/h (2 Bft) W-SW 0,00 h 0,025 mm 0,8 UV-I 100 W/m 8,2 C 12,0 km/h (2 Bft)
14.07.2016 09:00 9,2 C 9,3 C 94 % 1016,3 hPa 0,6 mm 8,6 km/h (2 Bft) W-SW 0,00 h 0,051 mm 0,8 UV-I 91 W/m 8,4 C 14,5 km/h (3 Bft)
14.07.2016 10:00 9,1 C 9,1 C 94 % 1016,8 hPa 1,4 mm 7,9 km/h (2 Bft) W-SW 0,00 h 0,051 mm 0,8 UV-I 86 W/m 8,3 C 13,7 km/h (3 Bft)
14.07.2016 11:00 9,1 C 9,2 C 94 % 1017,5 hPa 1,0 mm 6,9 km/h (2 Bft) W-SW 0,00 h 0,051 mm 0,8 UV-I 83 W/m 8,2 C 11,8 km/h (2 Bft)
14.07.2016 12:00 9,3 C 9,4 C 94 % 1018,3 hPa 0,8 mm 8,4 km/h (2 Bft) W-SW 0,00 h 0,051 mm 1,3 UV-I 111 W/m 8,4 C 14,1 km/h (3 Bft)
14.07.2016 13:00 10,6 C 10,7 C 92 % 1018,6 hPa 0,2 mm 7,1 km/h (2 Bft) W 0,03 h 0,050 mm 1,8 UV-I 205 W/m 9,3 C 12,7 km/h (3 Bft)
14.07.2016 14:00 9,3 C 9,4 C 92 % 1019,4 hPa 2,2 mm 5,3 km/h (1 Bft) W-SW 0,00 h 0,102 mm 1,0 UV-I 96 W/m 8,1 C 9,0 km/h (2 Bft)
14.07.2016 15:00 9,7 C 9,7 C 94 % 1019,7 hPa 1,4 mm 4,3 km/h (1 Bft) W-SW 0,02 h 0,051 mm 1,8 UV-I 192 W/m 8,7 C 7,4 km/h (2 Bft)
14.07.2016 16:00 10,4 C 10,4 C 93 % 1019,8 hPa 0,0 mm 2,0 km/h (1 Bft) S-SW 0,00 h 0,101 mm 1,7 UV-I 208 W/m 9,3 C 4,0 km/h (1 Bft)
14.07.2016 17:00 11,0 C 11,1 C 92 % 1019,7 hPa 0,0 mm 1,8 km/h (1 Bft) W-SW 0,00 h 0,102 mm 1,3 UV-I 132 W/m 9,8 C 3,5 km/h (1 Bft)
14.07.2016 18:00 12,1 C 12,1 C 86 % 1019,6 hPa 0,0 mm 2,4 km/h (1 Bft) SW 0,00 h 0,076 mm 1,1 UV-I 81 W/m 9,8 C 4,6 km/h (1 Bft)
14.07.2016 19:00 11,5 C 11,5 C 85 % 1019,9 hPa 0,0 mm 2,6 km/h (1 Bft) SW 0,20 h 0,051 mm 0,6 UV-I 84 W/m 9,1 C 4,6 km/h (1 Bft)
14.07.2016 20:00 9,9 C 10,0 C 89 % 1020,5 hPa 0,0 mm 1,5 km/h (1 Bft) S-SW 0,37 h 0,051 mm 0,0 UV-I 40 W/m 8,2 C 2,9 km/h (1 Bft)
14.07.2016 21:00 8,9 C 8,9 C 91 % 1021,6 hPa 0,0 mm 3,9 km/h (1 Bft) W-SW 0,00 h 0,025 mm 0,0 UV-I 0 W/m 7,5 C 6,5 km/h (2 Bft)
14.07.2016 22:00 9,0 C 9,0 C 90 % 1022,5 hPa 0,0 mm 2,3 km/h (1 Bft) W-SW 0,00 h 0,000 mm 0,0 UV-I 0 W/m 7,5 C 4,6 km/h (1 Bft)
14.07.2016 23:00 8,8 C 8,8 C 91 % 1022,9 hPa 0,0 mm 2,3 km/h (1 Bft) S-SW 0,00 h 0,000 mm 0,0 UV-I 0 W/m 7,4 C 4,2 km/h (1 Bft)
15.07.2016 00:00 8,8 C 8,8 C 91 % 1023,3 hPa 0,2 mm 4,1 km/h (1 Bft) W-SW 0,00 h 0,000 mm 0,0 UV-I 0 W/m 7,3 C 7,7 km/h (2 Bft)
15.07.2016 01:00 8,5 C 8,6 C 91 % 1023,3 hPa 0,4 mm 3,3 km/h (1 Bft) SW 0,00 h 0,000 mm 0,0 UV-I 0 W/m 7,2 C 5,9 km/h (2 Bft)
15.07.2016 02:00 8,2 C 8,2 C 94 % 1023,4 hPa 0,8 mm 1,9 km/h (1 Bft) S-SW 0,00 h 0,000 mm 0,0 UV-I 0 W/m 7,4 C 3,7 km/h (1 Bft)
15.07.2016 03:00 8,4 C 8,4 C 92 % 1023,4 hPa 0,0 mm 2,7 km/h (1 Bft) S 0,00 h 0,000 mm 0,0 UV-I 0 W/m 7,1 C 5,0 km/h (1 Bft)
15.07.2016 04:00 8,3 C 8,3 C 92 % 1023,4 hPa 0,0 mm 2,7 km/h (1 Bft) S-SW 0,00 h 0,000 mm 0,0 UV-I 0 W/m 7,0 C 4,7 km/h (1 Bft)
15.07.2016 05:00 7,3 C 7,4 C 96 % 1023,7 hPa 0,0 mm 2,1 km/h (1 Bft) SO 0,00 h 0,000 mm 0,0 UV-I 7 W/m 6,7 C 3,9 km/h (1 Bft)
15.07.2016 06:00 8,3 C 8,4 C 94 % 1024,2 hPa 0,8 mm 2,5 km/h (1 Bft) S 0,00 h 0,000 mm 0,0 UV-I 14 W/m 7,4 C 4,3 km/h (1 Bft)
15.07.2016 07:00 8,7 C 8,7 C 94 % 1024,6 hPa 0,2 mm 1,7 km/h (1 Bft) S-SW 0,00 h 0,000 mm 0,0 UV-I 30 W/m 7,8 C 3,4 km/h (1 Bft)
15.07.2016 08:00 8,8 C 8,8 C 95 % 1025,0 hPa 2,4 mm 3,2 km/h (1 Bft) S 0,00 h 0,025 mm 0,9 UV-I 75 W/m 7,9 C 5,3 km/h (1 Bft)
15.07.2016 09:00 10,3 C 10,3 C 93 % 1025,2 hPa 0,0 mm 3,5 km/h (1 Bft) W-SW 0,18 h 0,026 mm 1,9 UV-I 264 W/m 9,2 C 5,8 km/h (2 Bft)
15.07.2016 10:00 11,7 C 11,7 C 86 % 1025,2 hPa 0,0 mm 4,4 km/h (1 Bft) W 0,35 h 0,127 mm 2,7 UV-I 388 W/m 9,4 C 7,0 km/h (2 Bft)
15.07.2016 11:00 11,5 C 11,6 C 86 % 1025,5 hPa 0,0 mm 4,9 km/h (1 Bft) W-SW 0,20 h 0,203 mm 2,3 UV-I 284 W/m 9,2 C 8,0 km/h (2 Bft)
15.07.2016 12:00 12,1 C 12,1 C 84 % 1025,5 hPa 0,0 mm 4,4 km/h (1 Bft) W 0,18 h 0,127 mm 2,9 UV-I 391 W/m 9,4 C 7,2 km/h (2 Bft)
15.07.2016 13:00 11,6 C 11,7 C 86 % 1025,6 hPa 0,0 mm 2,1 km/h (1 Bft) S 0,00 h 0,203 mm 1,3 UV-I 157 W/m 9,3 C 3,6 km/h (1 Bft)
15.07.2016 14:00 12,2 C 12,3 C 80 % 1025,8 hPa 0,0 mm 1,6 km/h (1 Bft) W 0,00 h 0,076 mm 1,5 UV-I 181 W/m 8,9 C 3,1 km/h (1 Bft)
15.07.2016 15:00 11,6 C 11,6 C 89 % 1025,9 hPa 0,0 mm 2,3 km/h (1 Bft) W-SW 0,00 h 0,102 mm 1,5 UV-I 194 W/m 9,9 C 4,2 km/h (1 Bft)
15.07.2016 16:00 12,5 C 12,6 C 86 % 1025,8 hPa 0,4 mm 2,7 km/h (1 Bft) W 0,00 h 0,102 mm 1,9 UV-I 211 W/m 10,3 C 4,8 km/h (1 Bft)
15.07.2016 17:00 10,5 C 10,6 C 93 % 1026,2 hPa 2,4 mm 2,3 km/h (1 Bft) W-SW 0,00 h 0,127 mm 0,6 UV-I 61 W/m 9,4 C 4,5 km/h (1 Bft)
15.07.2016 18:00 10,6 C 10,6 C 93 % 1026,0 hPa 0,0 mm 2,5 km/h (1 Bft) S-SW 0,00 h 0,025 mm 0,6 UV-I 67 W/m 9,5 C 4,7 km/h (1 Bft)
15.07.2016 19:00 9,9 C 9,9 C 93 % 1026,2 hPa 2,8 mm 3,0 km/h (1 Bft) S-SW 0,00 h 0,025 mm 0,0 UV-I 17 W/m 8,8 C 5,7 km/h (1 Bft)
15.07.2016 20:00 10,0 C 10,0 C 93 % 1026,3 hPa 0,0 mm 4,3 km/h (1 Bft) S 0,00 h 0,000 mm 0,0 UV-I 10 W/m 8,9 C 7,2 km/h (2 Bft)
15.07.2016 21:00 9,6 C 9,6 C 95 % 1026,8 hPa 0,0 mm 2,4 km/h (1 Bft) S-SO 0,00 h 0,000 mm 0,0 UV-I 0 W/m 8,9 C 4,2 km/h (1 Bft)
15.07.2016 22:00 9,4 C 9,4 C 96 % 1027,2 hPa 0,0 mm 1,2 km/h (1 Bft) O 0,00 h 0,000 mm 0,0 UV-I 0 W/m 8,8 C 2,6 km/h (1 Bft)
15.07.2016 23:00 9,3 C 9,3 C 96 % 1027,3 hPa 0,0 mm 1,0 km/h (0 Bft) S 0,00 h 0,000 mm 0,0 UV-I 0 W/m 8,6 C 2,1 km/h (1 Bft)
16.07.2016 00:00 8,3 C 8,3 C 96 % 1027,3 hPa 0,0 mm 1,0 km/h (0 Bft) S-SO 0,00 h 0,000 mm 0,0 UV-I 0 W/m 7,7 C 2,0 km/h (1 Bft)
16.07.2016 01:00 7,5 C 7,5 C 97 % 1027,0 hPa 0,0 mm 0,9 km/h (0 Bft) S-SO 0,00 h 0,000 mm 0,0 UV-I 0 W/m 7,0 C 2,0 km/h (1 Bft)
16.07.2016 02:00 7,1 C 7,2 C 97 % 1026,9 hPa 0,0 mm 1,0 km/h (0 Bft) S-SO 0,00 h 0,000 mm 0,0 UV-I 0 W/m 6,7 C 2,4 km/h (1 Bft)
16.07.2016 03:00 7,9 C 7,9 C 97 % 1026,8 hPa 0,0 mm 0,7 km/h (0 Bft) NW 0,00 h 0,000 mm 0,0 UV-I 0 W/m 7,4 C 1,5 km/h (1 Bft)
16.07.2016 04:00 8,2 C 8,2 C 96 % 1026,7 hPa 0,0 mm 0,5 km/h (0 Bft) S-SW 0,00 h 0,000 mm 0,0 UV-I 0 W/m 7,6 C 1,4 km/h (1 Bft)
16.07.2016 05:00 8,1 C 8,1 C 96 % 1026,8 hPa 0,0 mm 0,4 km/h (0 Bft) SW 0,00 h 0,000 mm 0,0 UV-I 7 W/m 7,5 C 1,0 km/h (0 Bft)
16.07.2016 06:00 8,3 C 8,3 C 95 % 1026,8 hPa 0,0 mm 0,9 km/h (0 Bft) SW 0,00 h 0,000 mm 0,0 UV-I 26 W/m 7,6 C 2,0 km/h (1 Bft)
16.07.2016 07:00 8,9 C 8,9 C 95 % 1026,9 hPa 0,0 mm 0,6 km/h (0 Bft) W 0,00 h 0,000 mm 0,6 UV-I 69 W/m 8,1 C 1,6 km/h (1 Bft)
16.07.2016 08:00 10,1 C 10,1 C 92 % 1027,0 hPa 0,0 mm 0,9 km/h (0 Bft) O-NO 0,05 h 0,025 mm 1,0 UV-I 157 W/m 8,9 C 2,1 km/h (1 Bft)
16.07.2016 09:00 12,9 C 12,9 C 81 % 1026,7 hPa 0,0 mm 3,7 km/h (1 Bft) W-SW 1,00 h 0,077 mm 3,0 UV-I 520 W/m 9,7 C 5,9 km/h (2 Bft)
16.07.2016 10:00 13,1 C 13,1 C 73 % 1026,9 hPa 0,0 mm 3,8 km/h (1 Bft) W-SW 0,15 h 0,279 mm 1,8 UV-I 273 W/m 8,4 C 6,2 km/h (2 Bft)
16.07.2016 11:00 12,9 C 12,9 C 77 % 1027,3 hPa 0,0 mm 1,6 km/h (1 Bft) SW 0,00 h 0,127 mm 1,6 UV-I 187 W/m 8,9 C 2,9 km/h (1 Bft)
16.07.2016 12:00 14,0 C 14,0 C 67 % 1027,0 hPa 0,0 mm 3,0 km/h (1 Bft) W 0,32 h 0,102 mm 3,4 UV-I 413 W/m 8,0 C 4,8 km/h (1 Bft)
16.07.2016 13:00 14,7 C 14,7 C 61 % 1026,5 hPa 0,0 mm 2,6 km/h (1 Bft) W 0,60 h 0,228 mm 5,1 UV-I 520 W/m 7,1 C 4,8 km/h (1 Bft)
16.07.2016 14:00 16,0 C 16,0 C 60 % 1026,2 hPa 0,0 mm 5,6 km/h (1 Bft) W-NW 0,75 h 0,330 mm 5,7 UV-I 744 W/m 8,2 C 9,0 km/h (2 Bft)
16.07.2016 15:00 16,2 C 16,2 C 56 % 1025,9 hPa 0,0 mm 3,7 km/h (1 Bft) W-NW 0,67 h 0,407 mm 4,9 UV-I 652 W/m 7,3 C 6,1 km/h (2 Bft)
16.07.2016 16:00 16,6 C 16,6 C 55 % 1025,5 hPa 0,0 mm 4,9 km/h (1 Bft) NW 0,33 h 0,355 mm 3,0 UV-I 312 W/m 7,5 C 7,9 km/h (2 Bft)
16.07.2016 17:00 16,4 C 16,4 C 56 % 1025,2 hPa 0,0 mm 4,3 km/h (1 Bft) W 0,00 h 0,204 mm 1,7 UV-I 82 W/m 7,6 C 6,7 km/h (2 Bft)
16.07.2016 18:00 16,9 C 16,9 C 55 % 1024,9 hPa 0,0 mm 5,2 km/h (1 Bft) W-NW 0,00 h 0,076 mm 1,2 UV-I 91 W/m 7,9 C 8,5 km/h (2 Bft)
16.07.2016 19:00 16,5 C 16,5 C 59 % 1024,8 hPa 0,0 mm 3,3 km/h (1 Bft) W 0,27 h 0,076 mm 0,7 UV-I 91 W/m 8,3 C 5,6 km/h (1 Bft)
16.07.2016 20:00 14,2 C 14,2 C 71 % 1024,9 hPa 0,0 mm 1,7 km/h (1 Bft) S 0,05 h 0,076 mm 0,0 UV-I 34 W/m 9,0 C 2,9 km/h (1 Bft)
16.07.2016 21:00 11,3 C 11,3 C 85 % 1025,1 hPa 0,0 mm 2,2 km/h (1 Bft) S 0,00 h 0,026 mm 0,0 UV-I 6 W/m 8,8 C 3,7 km/h (1 Bft)
16.07.2016 22:00 10,5 C 10,5 C 85 % 1025,1 hPa 0,0 mm 0,5 km/h (0 Bft) S 0,00 h 0,000 mm 0,0 UV-I 0 W/m 8,1 C 1,4 km/h (1 Bft)
16.07.2016 23:00 9,9 C 9,9 C 86 % 1025,0 hPa 0,0 mm 0,4 km/h (0 Bft) W-SW 0,00 h 0,000 mm 0,0 UV-I 0 W/m 7,7 C 1,2 km/h (1 Bft)
17.07.2016 00:00 10,4 C 10,4 C 84 % 1024,8 hPa 0,0 mm 1,0 km/h (0 Bft) N-NW 0,00 h 0,000 mm 0,0 UV-I 0 W/m 7,9 C 2,4 km/h (1 Bft)
17.07.2016 01:00 11,0 C 11,0 C 83 % 1024,5 hPa 0,0 mm 1,0 km/h (0 Bft) W 0,00 h 0,000 mm 0,0 UV-I 0 W/m 8,2 C 2,2 km/h (1 Bft)
17.07.2016 02:00 10,7 C 10,7 C 84 % 1024,2 hPa 0,0 mm 1,0 km/h (0 Bft) W 0,00 h 0,025 mm 0,0 UV-I 0 W/m 8,1 C 1,9 km/h (1 Bft)
17.07.2016 03:00 10,4 C 10,4 C 86 % 1023,7 hPa 0,0 mm 0,5 km/h (0 Bft) W-NW 0,00 h 0,000 mm 0,0 UV-I 0 W/m 8,2 C 1,4 km/h (1 Bft)
17.07.2016 04:00 11,1 C 11,1 C 84 % 1023,5 hPa 0,0 mm 1,4 km/h (1 Bft) W-NW 0,00 h 0,000 mm 0,0 UV-I 0 W/m 8,5 C 2,9 km/h (1 Bft)
17.07.2016 05:00 11,2 C 11,3 C 84 % 1023,6 hPa 0,0 mm 1,3 km/h (1 Bft) N-NW 0,00 h 0,026 mm 0,0 UV-I 0 W/m 8,7 C 2,8 km/h (1 Bft)
17.07.2016 06:00 11,4 C 11,5 C 85 % 1023,6 hPa 0,0 mm 1,1 km/h (1 Bft) S 0,00 h 0,000 mm 0,0 UV-I 12 W/m 9,0 C 2,7 km/h (1 Bft)
17.07.2016 07:00 12,1 C 12,1 C 85 % 1023,5 hPa 0,0 mm 0,4 km/h (0 Bft) N-NW 0,00 h 0,000 mm 0,5 UV-I 38 W/m 9,6 C 1,0 km/h (0 Bft)
17.07.2016 08:00 13,1 C 13,1 C 83 % 1023,8 hPa 0,0 mm 0,4 km/h (0 Bft) O 0,00 h 0,025 mm 0,8 UV-I 114 W/m 10,4 C 1,0 km/h (0 Bft)
17.07.2016 09:00 15,4 C 15,4 C 76 % 1023,5 hPa 0,0 mm 1,8 km/h (1 Bft) W-SW 0,28 h 0,051 mm 2,0 UV-I 256 W/m 11,2 C 3,6 km/h (1 Bft)
17.07.2016 10:00 17,1 C 17,2 C 65 % 1023,3 hPa 0,0 mm 4,6 km/h (1 Bft) W 0,30 h 0,152 mm 3,0 UV-I 352 W/m 10,5 C 7,6 km/h (2 Bft)
17.07.2016 11:00 18,4 C 18,5 C 63 % 1023,0 hPa 0,0 mm 5,9 km/h (2 Bft) W 0,58 h 0,229 mm 5,1 UV-I 576 W/m 11,2 C 9,9 km/h (2 Bft)
17.07.2016 12:00 19,5 C 19,5 C 65 % 1022,9 hPa 0,0 mm 5,8 km/h (2 Bft) W 0,60 h 0,356 mm 6,0 UV-I 649 W/m 12,7 C 9,6 km/h (2 Bft)
17.07.2016 13:00 20,8 C 20,8 C 62 % 1022,4 hPa 0,0 mm 4,2 km/h (1 Bft) W-NW 0,90 h 0,406 mm 7,6 UV-I 888 W/m 13,1 C 6,9 km/h (2 Bft)
17.07.2016 14:00 21,6 C 21,6 C 60 % 1021,9 hPa 0,0 mm 3,6 km/h (1 Bft) NW 0,95 h 0,533 mm 6,9 UV-I 910 W/m 13,3 C 6,2 km/h (2 Bft)
17.07.2016 15:00 22,0 C 22,0 C 59 % 1021,5 hPa 0,0 mm 5,7 km/h (1 Bft) NW 0,75 h 0,534 mm 5,4 UV-I 715 W/m 13,5 C 9,6 km/h (2 Bft)
17.07.2016 16:00 22,1 C 22,1 C 59 % 1021,2 hPa 0,0 mm 5,5 km/h (1 Bft) N-NW 0,33 h 0,432 mm 3,1 UV-I 347 W/m 13,5 C 8,9 km/h (2 Bft)
17.07.2016 17:00 21,9 C 21,9 C 57 % 1020,8 hPa 0,0 mm 4,5 km/h (1 Bft) NW 0,00 h 0,228 mm 1,7 UV-I 55 W/m 12,9 C 7,3 km/h (2 Bft)
17.07.2016 18:00 22,1 C 22,1 C 56 % 1020,7 hPa 0,0 mm 3,8 km/h (1 Bft) W 0,00 h 0,076 mm 1,0 UV-I 46 W/m 12,8 C 6,6 km/h (2 Bft)
17.07.2016 19:00 22,1 C 22,1 C 56 % 1020,7 hPa 0,0 mm 2,7 km/h (1 Bft) W-NW 0,48 h 0,051 mm 0,7 UV-I 131 W/m 12,8 C 4,5 km/h (1 Bft)
17.07.2016 20:00 19,7 C 19,8 C 67 % 1020,6 hPa 0,0 mm 0,8 km/h (0 Bft) W-NW 0,03 h 0,102 mm 0,0 UV-I 34 W/m 13,4 C 1,8 km/h (1 Bft)
17.07.2016 21:00 16,3 C 16,3 C 81 % 1021,0 hPa 0,0 mm 1,9 km/h (1 Bft) S 0,00 h 0,025 mm 0,0 UV-I 6 W/m 13,0 C 3,3 km/h (1 Bft)
17.07.2016 22:00 15,4 C 15,4 C 83 % 1021,4 hPa 0,0 mm 0,4 km/h (0 Bft) S 0,00 h 0,000 mm 0,0 UV-I 0 W/m 12,5 C 1,3 km/h (1 Bft)
17.07.2016 23:00 15,7 C 15,7 C 82 % 1021,4 hPa 0,0 mm 0,3 km/h (0 Bft) SW 0,00 h 0,026 mm 0,0 UV-I 0 W/m 12,5 C 1,0 km/h (0 Bft)
Min-Datum _ 16.07.16 16.07.16 11.07.16 11.07.16 - 17.07.16 - - - - - 16.07.16 17.07.16
_ Min-Zeit 02:17 02:25 14:01 17:17 - 23:00 - - - - - 13:54 23:00
Minimum _ 6,7 C 6,7 C 49 % 1009,1 hPa - 0,0 km/h (0 Bft) - - - - - 5,8 C 0,0 km/h (0 Bft)
Max-Datum _ 11.07.16 11.07.16 16.07.16 15.07.16 11.07.16 11.07.16 - 17.07.16 11.07.16 17.07.16 16.07.16 11.07.16 11.07.16
_ Max-Zeit 14:00 14:00 05:03 23:08 17:48 17:52 - 20:54 12:01 12:08 14:12 14:47 17:52
Maximum _ 28,3 C 28,3 C 97 % 1027,5 hPa 17,4 mm 23,1 km/h
W-SW (4 Bft)
- 0,02 h 0,559 mm 8,8 UV-I 1296 W/m 20,6 C 35,4 km/h
W-NW (5 Bft)
Durchschnitt _ 13,8 C 13,8 C 86 % 1018,5 hPa #106,4 mm 3,0 km/h (1 Bft) W-SW #19:31 h #13,361 mm 2,2 UV-I 133 W/m 11,2 C 5,2 km/h (1 Bft)